McHenry, IL

2:41 AM CST on February 06, 2016 (GMT -0600)
Pheasant Valley | | Change Station
CLOSE
Current Station
Personal Weather Station
Location: McHenry, IL
Elevation: 768 ft
Nearby Weather Stations

Elev 768 ft 42.35 °N, 88.30 °W | Updated 6 seconds ago

Mostly Cloudy
Mostly Cloudy
25.0 °F
Feels Like 25 °F
N
0.0
Wind Variable Wind from SSE
Gusts 0.0 mph

Today
High -- | Low -- °F
--% Chance of Precip.
Yesterday
High -- | Low -- °F
Precip. -- in
Pressure 30.31 in
Visibility 7.0 miles
Clouds Few 10000 ft
Windchill 25 °F
Dew Point 21 °F
Humidity 84%
Rainfall 0.00 in
Snow Depth Not available.
7:01 AM 5:13 PM
Waning Crescent, 6% visible
METAR KUGN 060755Z AUTO VRB04KT 7SM FEW100 M04/M06 A3026 RMK AO2 SLP263 T10391061
Pressure 30.31 in
Visibility 7.0 miles
Clouds Few 10000 ft
Windchill 25 °F
Dew Point 21 °F
Humidity 84%
Rainfall 0.00 in
Snow Depth Not available.
7:01 AM 5:13 PM
Waning Crescent, 6% visible
METAR KUGN 060755Z AUTO VRB04KT 7SM FEW100 M04/M06 A3026 RMK AO2 SLP263 T10391061

10-Day Weather Forecast

Almanac

Astronomy

Feb. 06, 2016 Rise Set
Actual Time
Civil Twilight
Nautical Twilight
Astronomical Twilight
Moon
Length of Visible Light
Length of Day
Tomorrow will be .
, % of the Moon is Illuminated

Today's Extremes

State Highs State Lows

Community

WunderPhotos

Upload Photos

1,890,933 photos uploaded!

WunderBlog® & News

Nearby

Air Quality

  Air Quality AQ Index Pollutant
Not available.

Snow Depth

Station Depth Elevation

Earthquake Activity

City Distance Mag. Time & Date
Minimum magnitude displayed is 2.5.

Coastal Water Temperatures

Place Temperature

Stations

Nearby Weather Stations

Station Location Temp. Windchill Dew Point Humidity Wind Precip. Elev Updated Type
                   

Watches & Warnings

There are currently no watches in effect.